UUWW/VKO METAR and TAF weather

Enter ICAO airport designator
Station Type Date Time Source
UUWW METAR 2020/10/29 17:00 UTC NOAA

UUWW 291700Z 14003MPS 9999 BKN023 07/04 Q1020 R06/000070 NOSIG


Station Type Date Time Source
UUWW Decoded METAR 2020/10/29 17:00 UTC NOAA

Moscow / Vnukovo , Russia (UUWW) 55-39N 037-16E
Oct 29, 2020 - 01:00 PM EDT / 2020.10.29 1700 UTC
Wind: from the SE (140 degrees) at 7 MPH (6 KT):0
Visibility: greater than 7 mile(s):0
Sky conditions: mostly cloudy
Temperature: 44 F (7 C)
Dew Point: 39 F (4 C)
Relative Humidity: 81%
Pressure (altimeter): 30.12 in. Hg (1020 hPa)
ob: UUWW 291700Z 14003MPS 9999 BKN023 07/04 Q1020 R06/000070 NOSIG
cycle: 17

Station Type Date Time Source
UUWW TAF 2020/10/29 15:24 UTC NOAA

TAF UUWW 291357Z 2915/3015 14003G08MPS 9999 FEW003 BKN016 TX07/3012Z TN02/3001Z
TEMPO 2921/3006 BKN007

Example: see airport list